sensor_id;sensor_type;location;lat;lon;timestamp;temperature;humidity
19622;DHT22;9958;33.196;-97.114;2022-08-19T00:01:41;29.30;99.90
19622;DHT22;9958;33.196;-97.114;2022-08-19T00:04:11;29.30;99.90
19622;DHT22;9958;33.196;-97.114;2022-08-19T00:06:41;29.30;99.90
19622;DHT22;9958;33.196;-97.114;2022-08-19T00:09:13;29.20;99.90
19622;DHT22;9958;33.196;-97.114;2022-08-19T00:11:44;29.30;99.90
19622;DHT22;9958;33.196;-97.114;2022-08-19T00:14:15;29.20;99.90
19622;DHT22;9958;33.196;-97.114;2022-08-19T00:16:46;29.20;99.90
19622;DHT22;9958;33.196;-97.114;2022-08-19T00:19:15;29.20;99.90
19622;DHT22;9958;33.196;-97.114;2022-08-19T00:21:44;29.20;99.90
19622;DHT22;9958;33.196;-97.114;2022-08-19T00:24:13;29.20;99.90
19622;DHT22;9958;33.196;-97.114;2022-08-19T00:26:44;29.10;99.90
19622;DHT22;9958;33.196;-97.114;2022-08-19T00:29:15;29.10;99.90
19622;DHT22;9958;33.196;-97.114;2022-08-19T00:31:45;29.00;99.90
19622;DHT22;9958;33.196;-97.114;2022-08-19T00:34:14;29.00;99.90
19622;DHT22;9958;33.196;-97.114;2022-08-19T00:36:43;28.90;99.90
19622;DHT22;9958;33.196;-97.114;2022-08-19T00:39:13;28.80;99.90
19622;DHT22;9958;33.196;-97.114;2022-08-19T00:41:44;28.70;99.90
19622;DHT22;9958;33.196;-97.114;2022-08-19T00:44:18;28.70;99.90
19622;DHT22;9958;33.196;-97.114;2022-08-19T00:46:49;28.60;99.90
19622;DHT22;9958;33.196;-97.114;2022-08-19T00:49:20;28.50;99.90
19622;DHT22;9958;33.196;-97.114;2022-08-19T00:51:55;28.40;99.90
19622;DHT22;9958;33.196;-97.114;2022-08-19T00:54:25;28.40;99.90
19622;DHT22;9958;33.196;-97.114;2022-08-19T00:56:55;28.30;99.90
19622;DHT22;9958;33.196;-97.114;2022-08-19T00:59:23;28.20;99.90
19622;DHT22;9958;33.196;-97.114;2022-08-19T01:01:53;28.20;99.90
19622;DHT22;9958;33.196;-97.114;2022-08-19T01:04:21;28.10;99.90
19622;DHT22;9958;33.196;-97.114;2022-08-19T01:06:49;28.00;99.90
19622;DHT22;9958;33.196;-97.114;2022-08-19T01:09:17;28.00;99.90
19622;DHT22;9958;33.196;-97.114;2022-08-19T01:11:46;27.90;99.90
19622;DHT22;9958;33.196;-97.114;2022-08-19T01:14:16;27.80;99.90
19622;DHT22;9958;33.196;-97.114;2022-08-19T01:16:46;27.80;99.90
19622;DHT22;9958;33.196;-97.114;2022-08-19T01:19:18;27.70;99.90
19622;DHT22;9958;33.196;-97.114;2022-08-19T01:21:54;27.70;99.90
19622;DHT22;9958;33.196;-97.114;2022-08-19T01:24:24;27.50;99.90
19622;DHT22;9958;33.196;-97.114;2022-08-19T01:26:53;27.50;99.90
19622;DHT22;9958;33.196;-97.114;2022-08-19T01:29:21;27.50;99.90
19622;DHT22;9958;33.196;-97.114;2022-08-19T01:31:50;27.40;99.90
19622;DHT22;9958;33.196;-97.114;2022-08-19T01:34:19;27.30;99.90
19622;DHT22;9958;33.196;-97.114;2022-08-19T01:36:48;27.30;99.90
19622;DHT22;9958;33.196;-97.114;2022-08-19T01:39:23;27.30;99.90
19622;DHT22;9958;33.196;-97.114;2022-08-19T01:41:54;27.30;99.90
19622;DHT22;9958;33.196;-97.114;2022-08-19T01:44:24;27.20;99.90
19622;DHT22;9958;33.196;-97.114;2022-08-19T01:46:52;27.10;99.90
19622;DHT22;9958;33.196;-97.114;2022-08-19T01:49:22;27.10;99.90
19622;DHT22;9958;33.196;-97.114;2022-08-19T01:51:51;27.10;99.90
19622;DHT22;9958;33.196;-97.114;2022-08-19T01:54:22;27.00;99.90
19622;DHT22;9958;33.196;-97.114;2022-08-19T01:56:54;26.90;99.90
19622;DHT22;9958;33.196;-97.114;2022-08-19T01:59:24;26.90;99.90
19622;DHT22;9958;33.196;-97.114;2022-08-19T02:01:53;26.80;99.90
19622;DHT22;9958;33.196;-97.114;2022-08-19T02:04:21;26.80;99.90
19622;DHT22;9958;33.196;-97.114;2022-08-19T02:06:49;26.80;99.90
19622;DHT22;9958;33.196;-97.114;2022-08-19T02:09:18;26.80;99.90
19622;DHT22;9958;33.196;-97.114;2022-08-19T02:11:46;26.70;99.90
19622;DHT22;9958;33.196;-97.114;2022-08-19T02:14:16;26.70;99.90
19622;DHT22;9958;33.196;-97.114;2022-08-19T02:16:44;26.70;99.90
19622;DHT22;9958;33.196;-97.114;2022-08-19T02:19:12;26.60;99.90
19622;DHT22;9958;33.196;-97.114;2022-08-19T02:21:41;26.60;99.90
19622;DHT22;9958;33.196;-97.114;2022-08-19T02:24:09;26.60;99.90
19622;DHT22;9958;33.196;-97.114;2022-08-19T02:26:38;26.50;99.90
19622;DHT22;9958;33.196;-97.114;2022-08-19T02:29:06;26.50;99.90
19622;DHT22;9958;33.196;-97.114;2022-08-19T02:31:36;26.50;99.90
19622;DHT22;9958;33.196;-97.114;2022-08-19T02:34:04;26.40;99.90
19622;DHT22;9958;33.196;-97.114;2022-08-19T02:36:33;26.40;99.90
19622;DHT22;9958;33.196;-97.114;2022-08-19T02:39:01;26.40;99.90
19622;DHT22;9958;33.196;-97.114;2022-08-19T02:41:31;26.30;99.90
19622;DHT22;9958;33.196;-97.114;2022-08-19T02:44:01;26.30;99.90
19622;DHT22;9958;33.196;-97.114;2022-08-19T02:46:32;26.30;99.90
19622;DHT22;9958;33.196;-97.114;2022-08-19T02:49:05;26.20;99.90
19622;DHT22;9958;33.196;-97.114;2022-08-19T02:51:36;26.20;99.90
19622;DHT22;9958;33.196;-97.114;2022-08-19T02:54:05;26.20;99.90
19622;DHT22;9958;33.196;-97.114;2022-08-19T02:56:35;26.10;99.90
19622;DHT22;9958;33.196;-97.114;2022-08-19T02:59:04;26.10;99.90
19622;DHT22;9958;33.196;-97.114;2022-08-19T03:01:39;26.10;99.90
19622;DHT22;9958;33.196;-97.114;2022-08-19T03:04:10;26.10;99.90
19622;DHT22;9958;33.196;-97.114;2022-08-19T03:06:40;26.00;99.90
19622;DHT22;9958;33.196;-97.114;2022-08-19T03:09:09;26.00;99.90
19622;DHT22;9958;33.196;-97.114;2022-08-19T03:11:38;26.00;99.90
19622;DHT22;9958;33.196;-97.114;2022-08-19T03:14:08;26.00;99.90
19622;DHT22;9958;33.196;-97.114;2022-08-19T03:16:43;26.00;99.90
19622;DHT22;9958;33.196;-97.114;2022-08-19T03:19:14;26.00;99.90
19622;DHT22;9958;33.196;-97.114;2022-08-19T03:21:44;25.90;99.90
19622;DHT22;9958;33.196;-97.114;2022-08-19T03:24:12;25.90;99.90
19622;DHT22;9958;33.196;-97.114;2022-08-19T03:26:43;25.90;99.90
19622;DHT22;9958;33.196;-97.114;2022-08-19T03:29:12;25.90;99.90
19622;DHT22;9958;33.196;-97.114;2022-08-19T03:31:42;25.80;99.90
19622;DHT22;9958;33.196;-97.114;2022-08-19T03:34:14;25.80;99.90
19622;DHT22;9958;33.196;-97.114;2022-08-19T03:36:43;25.80;99.90
19622;DHT22;9958;33.196;-97.114;2022-08-19T03:39:12;25.80;99.90
19622;DHT22;9958;33.196;-97.114;2022-08-19T03:41:42;25.80;99.90
19622;DHT22;9958;33.196;-97.114;2022-08-19T03:44:10;25.70;99.90
19622;DHT22;9958;33.196;-97.114;2022-08-19T03:46:39;25.70;99.90
19622;DHT22;9958;33.196;-97.114;2022-08-19T03:49:07;25.70;99.90
19622;DHT22;9958;33.196;-97.114;2022-08-19T03:51:38;25.70;99.90
19622;DHT22;9958;33.196;-97.114;2022-08-19T03:54:08;25.60;99.90
19622;DHT22;9958;33.196;-97.114;2022-08-19T03:56:38;25.60;99.90
19622;DHT22;9958;33.196;-97.114;2022-08-19T03:59:08;25.60;99.90
19622;DHT22;9958;33.196;-97.114;2022-08-19T04:01:37;25.60;99.90
19622;DHT22;9958;33.196;-97.114;2022-08-19T04:04:05;25.60;99.90
19622;DHT22;9958;33.196;-97.114;2022-08-19T04:06:36;25.60;99.90
19622;DHT22;9958;33.196;-97.114;2022-08-19T04:09:06;25.60;99.90
19622;DHT22;9958;33.196;-97.114;2022-08-19T04:11:38;25.50;99.90
19622;DHT22;9958;33.196;-97.114;2022-08-19T04:14:08;25.50;99.90
19622;DHT22;9958;33.196;-97.114;2022-08-19T04:16:37;25.50;99.90
19622;DHT22;9958;33.196;-97.114;2022-08-19T04:19:05;25.40;99.90
19622;DHT22;9958;33.196;-97.114;2022-08-19T04:21:36;25.50;99.90
19622;DHT22;9958;33.196;-97.114;2022-08-19T04:24:05;25.40;99.90
19622;DHT22;9958;33.196;-97.114;2022-08-19T04:26:35;25.40;99.90
19622;DHT22;9958;33.196;-97.114;2022-08-19T04:29:06;25.40;99.90
19622;DHT22;9958;33.196;-97.114;2022-08-19T04:31:35;25.40;99.90
19622;DHT22;9958;33.196;-97.114;2022-08-19T04:34:07;25.40;99.90
19622;DHT22;9958;33.196;-97.114;2022-08-19T04:36:40;25.30;99.90
19622;DHT22;9958;33.196;-97.114;2022-08-19T04:39:12;25.30;99.90
19622;DHT22;9958;33.196;-97.114;2022-08-19T04:41:40;25.30;99.90
19622;DHT22;9958;33.196;-97.114;2022-08-19T04:44:25;25.30;99.90
19622;DHT22;9958;33.196;-97.114;2022-08-19T04:46:57;25.20;99.90
19622;DHT22;9958;33.196;-97.114;2022-08-19T04:49:25;25.20;99.90
19622;DHT22;9958;33.196;-97.114;2022-08-19T04:51:55;25.20;99.90
19622;DHT22;9958;33.196;-97.114;2022-08-19T04:54:24;25.10;99.90
19622;DHT22;9958;33.196;-97.114;2022-08-19T04:56:53;25.10;99.90
19622;DHT22;9958;33.196;-97.114;2022-08-19T04:59:21;25.10;99.90
19622;DHT22;9958;33.196;-97.114;2022-08-19T05:01:49;25.10;99.90
19622;DHT22;9958;33.196;-97.114;2022-08-19T05:04:19;25.10;99.90
19622;DHT22;9958;33.196;-97.114;2022-08-19T05:06:48;25.00;99.90
19622;DHT22;9958;33.196;-97.114;2022-08-19T05:09:20;25.00;99.90
19622;DHT22;9958;33.196;-97.114;2022-08-19T05:11:48;25.00;99.90
19622;DHT22;9958;33.196;-97.114;2022-08-19T05:14:19;25.00;99.90
19622;DHT22;9958;33.196;-97.114;2022-08-19T05:16:47;25.00;99.90
19622;DHT22;9958;33.196;-97.114;2022-08-19T05:19:15;25.00;99.90
19622;DHT22;9958;33.196;-97.114;2022-08-19T05:22:01;25.00;99.90
19622;DHT22;9958;33.196;-97.114;2022-08-19T05:24:48;24.90;99.90
19622;DHT22;9958;33.196;-97.114;2022-08-19T05:27:16;24.80;99.90
19622;DHT22;9958;33.196;-97.114;2022-08-19T05:29:44;24.90;99.90
19622;DHT22;9958;33.196;-97.114;2022-08-19T05:32:13;24.90;99.90
19622;DHT22;9958;33.196;-97.114;2022-08-19T05:34:41;24.80;99.90
19622;DHT22;9958;33.196;-97.114;2022-08-19T05:37:09;24.80;99.90
19622;DHT22;9958;33.196;-97.114;2022-08-19T05:39:38;24.80;99.90
19622;DHT22;9958;33.196;-97.114;2022-08-19T05:42:09;24.80;99.90
19622;DHT22;9958;33.196;-97.114;2022-08-19T05:44:39;24.80;99.90
19622;DHT22;9958;33.196;-97.114;2022-08-19T05:47:11;24.80;99.90
19622;DHT22;9958;33.196;-97.114;2022-08-19T05:49:41;24.80;99.90
19622;DHT22;9958;33.196;-97.114;2022-08-19T05:52:13;24.80;99.90
19622;DHT22;9958;33.196;-97.114;2022-08-19T05:54:42;24.70;99.90
19622;DHT22;9958;33.196;-97.114;2022-08-19T05:57:15;24.70;99.90
19622;DHT22;9958;33.196;-97.114;2022-08-19T05:59:43;24.70;99.90
19622;DHT22;9958;33.196;-97.114;2022-08-19T06:02:12;24.70;99.90
19622;DHT22;9958;33.196;-97.114;2022-08-19T06:04:40;24.70;99.90
19622;DHT22;9958;33.196;-97.114;2022-08-19T06:07:10;24.70;99.90
19622;DHT22;9958;33.196;-97.114;2022-08-19T06:09:38;24.70;99.90
19622;DHT22;9958;33.196;-97.114;2022-08-19T06:12:07;24.70;99.90
19622;DHT22;9958;33.196;-97.114;2022-08-19T06:14:37;24.70;99.90
19622;DHT22;9958;33.196;-97.114;2022-08-19T06:17:06;24.70;99.90
19622;DHT22;9958;33.196;-97.114;2022-08-19T06:19:34;24.70;99.90
19622;DHT22;9958;33.196;-97.114;2022-08-19T06:22:07;24.60;99.90
19622;DHT22;9958;33.196;-97.114;2022-08-19T06:24:38;24.60;99.90
19622;DHT22;9958;33.196;-97.114;2022-08-19T06:27:06;24.60;99.90
19622;DHT22;9958;33.196;-97.114;2022-08-19T06:29:36;24.60;99.90
19622;DHT22;9958;33.196;-97.114;2022-08-19T06:32:05;24.60;99.90
19622;DHT22;9958;33.196;-97.114;2022-08-19T06:34:34;24.60;99.90
19622;DHT22;9958;33.196;-97.114;2022-08-19T06:37:03;24.50;99.90
19622;DHT22;9958;33.196;-97.114;2022-08-19T06:39:35;24.50;99.90
19622;DHT22;9958;33.196;-97.114;2022-08-19T06:42:05;24.50;99.90
19622;DHT22;9958;33.196;-97.114;2022-08-19T06:44:39;24.50;99.90
19622;DHT22;9958;33.196;-97.114;2022-08-19T06:47:09;24.50;99.90
19622;DHT22;9958;33.196;-97.114;2022-08-19T06:49:38;24.50;99.90
19622;DHT22;9958;33.196;-97.114;2022-08-19T06:52:06;24.50;99.90
19622;DHT22;9958;33.196;-97.114;2022-08-19T06:54:34;24.50;99.90
19622;DHT22;9958;33.196;-97.114;2022-08-19T06:57:03;24.50;99.90
19622;DHT22;9958;33.196;-97.114;2022-08-19T06:59:32;24.50;99.90
19622;DHT22;9958;33.196;-97.114;2022-08-19T07:02:04;24.50;99.90
19622;DHT22;9958;33.196;-97.114;2022-08-19T07:04:34;24.50;99.90
19622;DHT22;9958;33.196;-97.114;2022-08-19T07:07:06;24.50;99.90
19622;DHT22;9958;33.196;-97.114;2022-08-19T07:09:37;24.50;99.90
19622;DHT22;9958;33.196;-97.114;2022-08-19T07:12:07;24.50;99.90
19622;DHT22;9958;33.196;-97.114;2022-08-19T07:14:36;24.50;99.90
19622;DHT22;9958;33.196;-97.114;2022-08-19T07:17:09;24.50;99.90
19622;DHT22;9958;33.196;-97.114;2022-08-19T07:19:39;24.50;99.90
19622;DHT22;9958;33.196;-97.114;2022-08-19T07:22:08;24.50;99.90
19622;DHT22;9958;33.196;-97.114;2022-08-19T07:24:37;24.50;99.90
19622;DHT22;9958;33.196;-97.114;2022-08-19T07:27:06;24.50;99.90
19622;DHT22;9958;33.196;-97.114;2022-08-19T07:29:36;24.50;99.90
19622;DHT22;9958;33.196;-97.114;2022-08-19T07:32:06;24.50;99.90
19622;DHT22;9958;33.196;-97.114;2022-08-19T07:34:35;24.50;99.90
19622;DHT22;9958;33.196;-97.114;2022-08-19T07:37:04;24.50;99.90
19622;DHT22;9958;33.196;-97.114;2022-08-19T07:39:35;24.50;99.90
19622;DHT22;9958;33.196;-97.114;2022-08-19T07:42:06;24.50;99.90
19622;DHT22;9958;33.196;-97.114;2022-08-19T07:44:35;24.40;99.90
19622;DHT22;9958;33.196;-97.114;2022-08-19T07:47:06;24.40;99.90
19622;DHT22;9958;33.196;-97.114;2022-08-19T07:49:34;24.40;99.90
19622;DHT22;9958;33.196;-97.114;2022-08-19T07:52:05;24.40;99.90
19622;DHT22;9958;33.196;-97.114;2022-08-19T07:54:35;24.30;99.90
19622;DHT22;9958;33.196;-97.114;2022-08-19T07:57:05;24.30;99.90
19622;DHT22;9958;33.196;-97.114;2022-08-19T07:59:33;24.30;99.90
19622;DHT22;9958;33.196;-97.114;2022-08-19T08:02:02;24.30;99.90
19622;DHT22;9958;33.196;-97.114;2022-08-19T08:04:32;24.20;99.90
19622;DHT22;9958;33.196;-97.114;2022-08-19T08:07:18;24.10;99.90
19622;DHT22;9958;33.196;-97.114;2022-08-19T08:10:04;24.10;99.90
19622;DHT22;9958;33.196;-97.114;2022-08-19T08:12:35;24.10;99.90
19622;DHT22;9958;33.196;-97.114;2022-08-19T08:15:09;24.10;99.90
19622;DHT22;9958;33.196;-97.114;2022-08-19T08:17:38;24.10;99.90
19622;DHT22;9958;33.196;-97.114;2022-08-19T08:20:09;24.00;99.90
19622;DHT22;9958;33.196;-97.114;2022-08-19T08:22:37;24.00;99.90
19622;DHT22;9958;33.196;-97.114;2022-08-19T08:25:27;24.00;99.90
19622;DHT22;9958;33.196;-97.114;2022-08-19T08:27:55;23.90;99.90
19622;DHT22;9958;33.196;-97.114;2022-08-19T08:30:27;23.90;99.90
19622;DHT22;9958;33.196;-97.114;2022-08-19T08:32:56;23.90;99.90
19622;DHT22;9958;33.196;-97.114;2022-08-19T08:35:25;23.90;99.90
19622;DHT22;9958;33.196;-97.114;2022-08-19T08:37:55;23.80;99.90
19622;DHT22;9958;33.196;-97.114;2022-08-19T08:40:28;23.80;99.90
19622;DHT22;9958;33.196;-97.114;2022-08-19T08:43:01;23.80;99.90
19622;DHT22;9958;33.196;-97.114;2022-08-19T08:45:33;23.70;99.90
19622;DHT22;9958;33.196;-97.114;2022-08-19T08:48:04;23.70;99.90
19622;DHT22;9958;33.196;-97.114;2022-08-19T08:50:42;23.70;99.90
19622;DHT22;9958;33.196;-97.114;2022-08-19T08:53:14;23.70;99.90
19622;DHT22;9958;33.196;-97.114;2022-08-19T08:55:44;23.70;99.90
19622;DHT22;9958;33.196;-97.114;2022-08-19T08:58:17;23.70;99.90
19622;DHT22;9958;33.196;-97.114;2022-08-19T09:00:47;23.70;99.90
19622;DHT22;9958;33.196;-97.114;2022-08-19T09:03:20;23.70;99.90
19622;DHT22;9958;33.196;-97.114;2022-08-19T09:05:58;23.70;99.90
19622;DHT22;9958;33.196;-97.114;2022-08-19T09:08:35;23.70;99.90
19622;DHT22;9958;33.196;-97.114;2022-08-19T09:11:07;23.70;99.90
19622;DHT22;9958;33.196;-97.114;2022-08-19T09:13:44;23.70;99.90
19622;DHT22;9958;33.196;-97.114;2022-08-19T09:16:19;23.60;99.90
19622;DHT22;9958;33.196;-97.114;2022-08-19T09:18:51;23.60;99.90
19622;DHT22;9958;33.196;-97.114;2022-08-19T09:21:22;23.60;99.90
19622;DHT22;9958;33.196;-97.114;2022-08-19T09:23:52;23.60;99.90
19622;DHT22;9958;33.196;-97.114;2022-08-19T09:26:22;23.60;99.90
19622;DHT22;9958;33.196;-97.114;2022-08-19T09:28:51;23.60;99.90
19622;DHT22;9958;33.196;-97.114;2022-08-19T09:31:22;23.60;99.90
19622;DHT22;9958;33.196;-97.114;2022-08-19T09:33:51;23.60;99.90
19622;DHT22;9958;33.196;-97.114;2022-08-19T09:36:26;23.60;99.90
19622;DHT22;9958;33.196;-97.114;2022-08-19T09:38:55;23.60;99.90
19622;DHT22;9958;33.196;-97.114;2022-08-19T09:41:25;23.60;99.90
19622;DHT22;9958;33.196;-97.114;2022-08-19T09:43:55;23.70;99.90
19622;DHT22;9958;33.196;-97.114;2022-08-19T09:46:24;23.60;99.90
19622;DHT22;9958;33.196;-97.114;2022-08-19T09:48:54;23.70;99.90
19622;DHT22;9958;33.196;-97.114;2022-08-19T09:51:26;23.70;99.90
19622;DHT22;9958;33.196;-97.114;2022-08-19T09:53:59;23.70;99.90
19622;DHT22;9958;33.196;-97.114;2022-08-19T09:56:28;23.60;99.90
19622;DHT22;9958;33.196;-97.114;2022-08-19T09:58:58;23.70;99.90
19622;DHT22;9958;33.196;-97.114;2022-08-19T10:01:28;23.60;99.90
19622;DHT22;9958;33.196;-97.114;2022-08-19T10:03:58;23.70;99.90
19622;DHT22;9958;33.196;-97.114;2022-08-19T10:06:29;23.60;99.90
19622;DHT22;9958;33.196;-97.114;2022-08-19T10:08:59;23.60;99.90
19622;DHT22;9958;33.196;-97.114;2022-08-19T10:11:27;23.60;99.90
19622;DHT22;9958;33.196;-97.114;2022-08-19T10:13:55;23.60;99.90
19622;DHT22;9958;33.196;-97.114;2022-08-19T10:16:24;23.50;99.90
19622;DHT22;9958;33.196;-97.114;2022-08-19T10:18:53;23.50;99.90
19622;DHT22;9958;33.196;-97.114;2022-08-19T10:21:23;23.50;99.90
19622;DHT22;9958;33.196;-97.114;2022-08-19T10:23:54;23.50;99.90
19622;DHT22;9958;33.196;-97.114;2022-08-19T10:26:25;23.50;99.90
19622;DHT22;9958;33.196;-97.114;2022-08-19T10:28:54;23.50;99.90
19622;DHT22;9958;33.196;-97.114;2022-08-19T10:31:24;23.50;99.90
19622;DHT22;9958;33.196;-97.114;2022-08-19T10:33:53;23.50;99.90
19622;DHT22;9958;33.196;-97.114;2022-08-19T10:36:26;23.50;99.90
19622;DHT22;9958;33.196;-97.114;2022-08-19T10:38:58;23.50;99.90
19622;DHT22;9958;33.196;-97.114;2022-08-19T10:41:29;23.50;99.90
19622;DHT22;9958;33.196;-97.114;2022-08-19T10:44:00;23.50;99.90
19622;DHT22;9958;33.196;-97.114;2022-08-19T10:46:29;23.50;99.90
19622;DHT22;9958;33.196;-97.114;2022-08-19T10:48:59;23.60;99.90
19622;DHT22;9958;33.196;-97.114;2022-08-19T10:51:28;23.60;99.90
19622;DHT22;9958;33.196;-97.114;2022-08-19T10:54:15;23.60;99.90
19622;DHT22;9958;33.196;-97.114;2022-08-19T10:56:44;23.60;99.90
19622;DHT22;9958;33.196;-97.114;2022-08-19T10:59:21;23.60;99.90
19622;DHT22;9958;33.196;-97.114;2022-08-19T11:01:51;23.60;99.90
19622;DHT22;9958;33.196;-97.114;2022-08-19T11:04:19;23.60;99.90
19622;DHT22;9958;33.196;-97.114;2022-08-19T11:06:49;23.60;99.90
19622;DHT22;9958;33.196;-97.114;2022-08-19T11:09:20;23.60;99.90
19622;DHT22;9958;33.196;-97.114;2022-08-19T11:11:50;23.60;99.90
19622;DHT22;9958;33.196;-97.114;2022-08-19T11:14:20;23.60;99.90
19622;DHT22;9958;33.196;-97.114;2022-08-19T11:16:52;23.60;99.90
19622;DHT22;9958;33.196;-97.114;2022-08-19T11:19:22;23.60;99.90
19622;DHT22;9958;33.196;-97.114;2022-08-19T11:21:51;23.50;99.90
19622;DHT22;9958;33.196;-97.114;2022-08-19T11:24:24;23.60;99.90
19622;DHT22;9958;33.196;-97.114;2022-08-19T11:26:55;23.50;99.90
19622;DHT22;9958;33.196;-97.114;2022-08-19T11:29:28;23.50;99.90
19622;DHT22;9958;33.196;-97.114;2022-08-19T11:31:57;23.50;99.90
19622;DHT22;9958;33.196;-97.114;2022-08-19T11:34:28;23.50;99.90
19622;DHT22;9958;33.196;-97.114;2022-08-19T11:36:57;23.50;99.90
19622;DHT22;9958;33.196;-97.114;2022-08-19T11:39:29;23.50;99.90
19622;DHT22;9958;33.196;-97.114;2022-08-19T11:41:58;23.50;99.90
19622;DHT22;9958;33.196;-97.114;2022-08-19T11:44:27;23.50;99.90
19622;DHT22;9958;33.196;-97.114;2022-08-19T11:46:56;23.50;99.90
19622;DHT22;9958;33.196;-97.114;2022-08-19T11:49:26;23.50;99.90
19622;DHT22;9958;33.196;-97.114;2022-08-19T11:51:55;23.50;99.90
19622;DHT22;9958;33.196;-97.114;2022-08-19T11:54:26;23.50;99.90
19622;DHT22;9958;33.196;-97.114;2022-08-19T11:56:54;23.40;99.90
19622;DHT22;9958;33.196;-97.114;2022-08-19T11:59:22;23.40;99.90
19622;DHT22;9958;33.196;-97.114;2022-08-19T12:01:50;23.40;99.90
19622;DHT22;9958;33.196;-97.114;2022-08-19T12:04:19;23.40;99.90
19622;DHT22;9958;33.196;-97.114;2022-08-19T12:06:47;23.40;99.90
19622;DHT22;9958;33.196;-97.114;2022-08-19T12:09:16;23.40;99.90
19622;DHT22;9958;33.196;-97.114;2022-08-19T12:11:46;23.40;99.90
19622;DHT22;9958;33.196;-97.114;2022-08-19T12:14:14;23.40;99.90
19622;DHT22;9958;33.196;-97.114;2022-08-19T12:16:44;23.40;99.90
19622;DHT22;9958;33.196;-97.114;2022-08-19T12:19:13;23.40;99.90
19622;DHT22;9958;33.196;-97.114;2022-08-19T12:21:41;23.40;99.90
19622;DHT22;9958;33.196;-97.114;2022-08-19T12:24:10;23.40;99.90
19622;DHT22;9958;33.196;-97.114;2022-08-19T12:26:39;23.40;99.90
19622;DHT22;9958;33.196;-97.114;2022-08-19T12:29:09;23.40;99.90
19622;DHT22;9958;33.196;-97.114;2022-08-19T12:31:37;23.40;99.90
19622;DHT22;9958;33.196;-97.114;2022-08-19T12:34:05;23.50;99.90
19622;DHT22;9958;33.196;-97.114;2022-08-19T12:36:34;23.50;99.90
19622;DHT22;9958;33.196;-97.114;2022-08-19T12:39:02;23.50;99.90
19622;DHT22;9958;33.196;-97.114;2022-08-19T12:41:30;23.50;99.90
19622;DHT22;9958;33.196;-97.114;2022-08-19T12:43:59;23.50;99.90
19622;DHT22;9958;33.196;-97.114;2022-08-19T12:46:29;23.60;99.90
19622;DHT22;9958;33.196;-97.114;2022-08-19T12:48:57;23.60;99.90
19622;DHT22;9958;33.196;-97.114;2022-08-19T12:51:26;23.60;99.90
19622;DHT22;9958;33.196;-97.114;2022-08-19T12:53:54;23.70;99.90
19622;DHT22;9958;33.196;-97.114;2022-08-19T12:56:22;23.70;99.90
19622;DHT22;9958;33.196;-97.114;2022-08-19T12:58:51;23.80;99.90
19622;DHT22;9958;33.196;-97.114;2022-08-19T13:01:19;23.80;99.90
19622;DHT22;9958;33.196;-97.114;2022-08-19T13:03:49;23.90;99.90
19622;DHT22;9958;33.196;-97.114;2022-08-19T13:06:18;24.00;99.90
19622;DHT22;9958;33.196;-97.114;2022-08-19T13:08:46;24.00;99.90
19622;DHT22;9958;33.196;-97.114;2022-08-19T13:11:17;24.10;99.90
19622;DHT22;9958;33.196;-97.114;2022-08-19T13:13:47;24.10;99.90
19622;DHT22;9958;33.196;-97.114;2022-08-19T13:16:17;24.30;99.90
19622;DHT22;9958;33.196;-97.114;2022-08-19T13:18:48;24.40;99.90
19622;DHT22;9958;33.196;-97.114;2022-08-19T13:21:23;24.60;99.90
19622;DHT22;9958;33.196;-97.114;2022-08-19T13:23:52;24.90;99.90
19622;DHT22;9958;33.196;-97.114;2022-08-19T13:26:21;25.00;99.90
19622;DHT22;9958;33.196;-97.114;2022-08-19T13:28:49;25.30;99.90
19622;DHT22;9958;33.196;-97.114;2022-08-19T13:31:36;25.50;99.90
19622;DHT22;9958;33.196;-97.114;2022-08-19T13:34:30;25.70;99.90
19622;DHT22;9958;33.196;-97.114;2022-08-19T13:36:59;25.80;99.90
19622;DHT22;9958;33.196;-97.114;2022-08-19T13:39:30;25.80;99.90
19622;DHT22;9958;33.196;-97.114;2022-08-19T13:41:58;25.80;99.90
19622;DHT22;9958;33.196;-97.114;2022-08-19T13:44:28;25.80;99.90
19622;DHT22;9958;33.196;-97.114;2022-08-19T13:47:01;25.80;99.90
19622;DHT22;9958;33.196;-97.114;2022-08-19T13:49:33;25.80;99.90
19622;DHT22;9958;33.196;-97.114;2022-08-19T13:52:02;25.80;99.90
19622;DHT22;9958;33.196;-97.114;2022-08-19T13:54:31;25.80;99.90
19622;DHT22;9958;33.196;-97.114;2022-08-19T13:56:59;25.80;99.90
19622;DHT22;9958;33.196;-97.114;2022-08-19T13:59:28;25.70;99.90
19622;DHT22;9958;33.196;-97.114;2022-08-19T14:01:58;25.60;99.90
19622;DHT22;9958;33.196;-97.114;2022-08-19T14:04:27;25.60;99.90
19622;DHT22;9958;33.196;-97.114;2022-08-19T14:06:57;25.60;99.90
19622;DHT22;9958;33.196;-97.114;2022-08-19T14:09:25;25.60;99.90
19622;DHT22;9958;33.196;-97.114;2022-08-19T14:11:54;25.60;99.90
19622;DHT22;9958;33.196;-97.114;2022-08-19T14:14:22;25.60;99.90
19622;DHT22;9958;33.196;-97.114;2022-08-19T14:16:50;25.60;99.90
19622;DHT22;9958;33.196;-97.114;2022-08-19T14:19:19;25.60;99.90
19622;DHT22;9958;33.196;-97.114;2022-08-19T14:21:47;25.60;99.90
19622;DHT22;9958;33.196;-97.114;2022-08-19T14:24:17;25.60;99.90
19622;DHT22;9958;33.196;-97.114;2022-08-19T14:26:45;25.70;99.90
19622;DHT22;9958;33.196;-97.114;2022-08-19T14:29:14;25.80;99.90
19622;DHT22;9958;33.196;-97.114;2022-08-19T14:31:42;25.90;99.90
19622;DHT22;9958;33.196;-97.114;2022-08-19T14:34:10;25.90;99.90
19622;DHT22;9958;33.196;-97.114;2022-08-19T14:36:39;26.00;99.90
19622;DHT22;9958;33.196;-97.114;2022-08-19T14:39:08;26.10;99.90
19622;DHT22;9958;33.196;-97.114;2022-08-19T14:41:40;26.20;99.90
19622;DHT22;9958;33.196;-97.114;2022-08-19T14:44:08;26.20;99.90
19622;DHT22;9958;33.196;-97.114;2022-08-19T14:46:39;26.30;99.90
19622;DHT22;9958;33.196;-97.114;2022-08-19T14:49:07;26.30;99.90
19622;DHT22;9958;33.196;-97.114;2022-08-19T14:51:36;26.30;99.90
19622;DHT22;9958;33.196;-97.114;2022-08-19T14:54:04;26.40;99.90
19622;DHT22;9958;33.196;-97.114;2022-08-19T14:56:33;26.40;99.90
19622;DHT22;9958;33.196;-97.114;2022-08-19T14:59:03;26.40;99.90
19622;DHT22;9958;33.196;-97.114;2022-08-19T15:01:31;26.50;99.90
19622;DHT22;9958;33.196;-97.114;2022-08-19T15:03:59;26.50;99.90
19622;DHT22;9958;33.196;-97.114;2022-08-19T15:06:28;26.60;99.90
19622;DHT22;9958;33.196;-97.114;2022-08-19T15:08:56;26.60;99.90
19622;DHT22;9958;33.196;-97.114;2022-08-19T15:11:26;26.80;99.90
19622;DHT22;9958;33.196;-97.114;2022-08-19T15:13:54;26.80;99.90
19622;DHT22;9958;33.196;-97.114;2022-08-19T15:16:24;26.90;99.90
19622;DHT22;9958;33.196;-97.114;2022-08-19T15:18:54;27.00;99.90
19622;DHT22;9958;33.196;-97.114;2022-08-19T15:21:24;27.20;99.90
19622;DHT22;9958;33.196;-97.114;2022-08-19T15:23:52;27.30;99.90
19622;DHT22;9958;33.196;-97.114;2022-08-19T15:26:20;27.50;99.90
19622;DHT22;9958;33.196;-97.114;2022-08-19T15:28:49;27.80;99.90
19622;DHT22;9958;33.196;-97.114;2022-08-19T15:31:19;28.00;99.90
19622;DHT22;9958;33.196;-97.114;2022-08-19T15:33:50;28.20;99.90